createdAt,value
2022-11-16T00:00:04.281Z,11.14
2022-11-16T00:00:59.083Z,10.26
2022-11-16T00:01:59.208Z,10.51
2022-11-16T00:02:59.116Z,12.99
2022-11-16T00:04:59.130Z,15.04
2022-11-16T00:06:59.159Z,13.20
2022-11-16T00:07:59.157Z,12.13
2022-11-16T00:08:59.124Z,11.51
2022-11-16T00:09:59.148Z,11.82
2022-11-16T00:10:59.121Z,11.54
2022-11-16T00:12:59.123Z,10.90
2022-11-16T00:13:59.150Z,12.28
2022-11-16T00:14:59.140Z,11.59
2022-11-16T00:15:59.137Z,10.99
2022-11-16T00:16:59.141Z,13.04
2022-11-16T00:17:59.122Z,12.05
2022-11-16T00:18:59.175Z,12.11
2022-11-16T00:20:59.144Z,12.11
2022-11-16T00:21:59.142Z,13.01
2022-11-16T00:22:59.132Z,12.99
2022-11-16T00:26:59.143Z,13.65
2022-11-16T00:29:59.141Z,13.20
2022-11-16T00:30:59.128Z,13.18
2022-11-16T00:31:59.180Z,13.62
2022-11-16T00:32:59.125Z,13.30
2022-11-16T00:33:59.147Z,13.14
2022-11-16T00:34:59.128Z,13.34
2022-11-16T00:37:59.168Z,14.84
2022-11-16T00:38:59.144Z,14.08
2022-11-16T00:39:59.142Z,14.51
2022-11-16T00:40:59.147Z,13.35
2022-11-16T00:41:59.124Z,13.70
2022-11-16T00:42:59.133Z,12.72
2022-11-16T00:43:59.156Z,13.59
2022-11-16T00:45:59.143Z,14.14
2022-11-16T00:46:59.146Z,13.59
2022-11-16T00:48:00.672Z,13.01
2022-11-16T00:48:59.131Z,13.00
2022-11-16T00:49:59.155Z,14.93
2022-11-16T00:51:59.151Z,13.63
2022-11-16T00:52:59.162Z,13.54
2022-11-16T00:53:59.143Z,13.14
2022-11-16T00:55:59.154Z,12.12
2022-11-16T00:56:59.120Z,13.27
2022-11-16T00:57:59.154Z,12.91
2022-11-16T00:58:59.139Z,12.13
2022-11-16T00:59:59.151Z,13.25
2022-11-16T01:01:59.162Z,13.09
2022-11-16T01:02:59.184Z,12.94
2022-11-16T01:03:59.147Z,13.09
2022-11-16T01:04:59.167Z,12.49
2022-11-16T01:07:59.174Z,12.76
2022-11-16T01:09:59.157Z,11.49
2022-11-16T01:10:59.202Z,13.00
2022-11-16T01:11:59.160Z,13.63
2022-11-16T01:12:59.238Z,13.05
2022-11-16T01:13:59.179Z,13.07
2022-11-16T01:14:59.159Z,12.93
2022-11-16T01:16:59.193Z,12.52
2022-11-16T01:17:59.203Z,12.70
2022-11-16T01:18:59.191Z,12.99
2022-11-16T01:19:59.214Z,13.04
2022-11-16T01:20:59.208Z,13.14
2022-11-16T01:21:59.188Z,12.88
2022-11-16T01:22:59.218Z,13.04
2022-11-16T01:23:59.183Z,12.91
2022-11-16T01:24:59.243Z,12.19
2022-11-16T01:25:59.227Z,13.71
2022-11-16T01:26:59.206Z,12.98
2022-11-16T01:27:59.197Z,13.20
2022-11-16T01:28:59.220Z,14.20
2022-11-16T01:29:59.215Z,12.15
2022-11-16T01:30:59.293Z,12.81
2022-11-16T01:31:59.213Z,13.26
2022-11-16T01:32:59.206Z,12.96
2022-11-16T01:33:59.215Z,14.12
2022-11-16T01:34:59.194Z,14.75
2022-11-16T01:35:59.272Z,13.14
2022-11-16T01:36:59.234Z,12.32
2022-11-16T01:37:59.216Z,12.95
2022-11-16T01:38:59.226Z,12.78
2022-11-16T01:39:59.219Z,14.05
2022-11-16T01:41:59.261Z,13.22
2022-11-16T01:42:59.243Z,13.19
2022-11-16T01:43:59.295Z,13.30
2022-11-16T01:44:59.268Z,13.46
2022-11-16T01:49:59.276Z,13.96
2022-11-16T01:50:59.255Z,12.27
2022-11-16T01:51:59.293Z,11.82
2022-11-16T01:52:59.259Z,12.12
2022-11-16T01:53:59.324Z,11.75
2022-11-16T01:55:59.304Z,11.35
2022-11-16T01:56:59.310Z,11.59
2022-11-16T01:57:59.266Z,11.54
2022-11-16T01:58:59.292Z,10.05
2022-11-16T01:59:59.293Z,11.32
2022-11-16T02:00:59.331Z,10.84
2022-11-16T02:01:59.322Z,11.55
2022-11-16T02:02:59.287Z,11.33
2022-11-16T02:03:59.310Z,11.11
2022-11-16T02:04:59.282Z,10.30
2022-11-16T02:05:59.308Z,11.41
2022-11-16T02:06:59.427Z,10.66
2022-11-16T02:07:59.303Z,10.60
2022-11-16T02:09:59.321Z,10.16
2022-11-16T02:10:59.287Z,9.54
2022-11-16T02:11:59.395Z,10.62
2022-11-16T02:12:59.315Z,9.99
2022-11-16T02:13:59.344Z,10.17
2022-11-16T02:14:59.345Z,10.86
2022-11-16T02:15:59.328Z,9.99
2022-11-16T02:16:59.307Z,10.77
2022-11-16T02:17:59.354Z,10.38
2022-11-16T02:18:59.338Z,9.99
2022-11-16T02:19:59.374Z,10.00
2022-11-16T02:20:59.359Z,10.21
2022-11-16T02:21:59.342Z,9.86
2022-11-16T02:22:59.403Z,8.95
2022-11-16T02:24:59.411Z,9.25
2022-11-16T02:25:59.362Z,9.54
2022-11-16T02:26:59.362Z,9.70
2022-11-16T02:27:59.402Z,9.38
2022-11-16T02:28:59.374Z,9.17
2022-11-16T02:29:59.362Z,9.67
2022-11-16T02:30:59.360Z,10.18
2022-11-16T02:31:59.380Z,9.06
2022-11-16T02:32:59.407Z,9.79
2022-11-16T02:33:59.368Z,8.84
2022-11-16T02:34:59.393Z,9.81
2022-11-16T02:35:59.380Z,9.38
2022-11-16T02:36:59.364Z,8.35
2022-11-16T02:37:59.424Z,8.24
2022-11-16T02:38:59.399Z,7.02
2022-11-16T02:39:59.379Z,7.42
2022-11-16T02:40:59.411Z,7.72
2022-11-16T02:41:59.415Z,7.49
2022-11-16T02:42:59.407Z,7.50
2022-11-16T02:43:59.412Z,7.78
2022-11-16T02:44:59.393Z,7.97
2022-11-16T02:45:59.395Z,7.60
2022-11-16T02:46:59.420Z,8.82
2022-11-16T02:47:59.428Z,8.09
2022-11-16T02:48:59.409Z,8.77
2022-11-16T02:49:59.419Z,7.35
2022-11-16T02:50:59.447Z,8.14
2022-11-16T02:51:59.440Z,7.39
2022-11-16T02:52:59.422Z,8.45
2022-11-16T02:53:59.411Z,8.33
2022-11-16T02:54:59.433Z,7.40
2022-11-16T02:55:59.436Z,7.57
2022-11-16T02:56:59.426Z,7.35
2022-11-16T02:57:59.472Z,7.08
2022-11-16T02:58:59.439Z,7.76
2022-11-16T02:59:59.443Z,7.20
2022-11-16T03:00:59.456Z,6.52
2022-11-16T03:01:59.432Z,6.42
2022-11-16T03:02:59.420Z,5.84
2022-11-16T03:03:59.483Z,5.90
2022-11-16T03:04:59.441Z,6.08
2022-11-16T03:05:59.441Z,5.89
2022-11-16T03:06:59.469Z,6.38
2022-11-16T03:07:59.446Z,6.99
2022-11-16T03:08:59.510Z,6.37
2022-11-16T03:09:59.467Z,6.40
2022-11-16T03:11:00.762Z,6.57
2022-11-16T03:12:59.465Z,5.25
2022-11-16T03:13:59.483Z,6.10
2022-11-16T03:14:59.485Z,5.89
2022-11-16T03:15:59.466Z,5.45
2022-11-16T03:16:59.468Z,5.51
2022-11-16T03:17:59.506Z,5.50
2022-11-16T03:19:59.456Z,5.51
2022-11-16T03:20:59.583Z,5.17
2022-11-16T03:21:59.491Z,5.97
2022-11-16T03:22:59.485Z,5.57
2022-11-16T03:23:59.491Z,5.53
2022-11-16T03:25:59.487Z,5.91
2022-11-16T03:26:59.500Z,6.03
2022-11-16T03:27:59.510Z,5.60
2022-11-16T03:28:59.551Z,5.95
2022-11-16T03:29:59.496Z,5.56
2022-11-16T03:30:59.524Z,5.19
2022-11-16T03:31:59.530Z,5.06
2022-11-16T03:32:59.518Z,5.31
2022-11-16T03:33:59.514Z,4.70
2022-11-16T03:34:59.516Z,5.21
2022-11-16T03:35:59.547Z,5.84
2022-11-16T03:36:59.583Z,4.81
2022-11-16T03:37:59.510Z,5.12
2022-11-16T03:38:59.569Z,5.25
2022-11-16T03:39:59.535Z,5.09
2022-11-16T03:40:59.545Z,5.42
2022-11-16T03:41:59.528Z,5.20
2022-11-16T03:42:59.555Z,5.43
2022-11-16T03:43:59.570Z,5.85
2022-11-16T03:44:59.564Z,5.83
2022-11-16T03:45:59.540Z,5.70
2022-11-16T03:46:59.538Z,5.43
2022-11-16T03:47:59.553Z,5.83
2022-11-16T03:48:59.606Z,5.50
2022-11-16T03:49:59.540Z,5.34
2022-11-16T03:50:59.564Z,4.82
2022-11-16T03:51:59.592Z,5.75
2022-11-16T03:52:59.579Z,5.23
2022-11-16T03:53:59.643Z,5.28
2022-11-16T03:54:59.598Z,5.73
2022-11-16T03:55:59.548Z,5.54
2022-11-16T03:57:59.591Z,5.86
2022-11-16T03:58:59.605Z,5.18
2022-11-16T03:59:59.604Z,5.16
2022-11-16T04:00:59.621Z,4.99
2022-11-16T04:02:59.607Z,5.70
2022-11-16T04:03:59.605Z,5.51
2022-11-16T04:06:59.700Z,5.19
2022-11-16T04:07:59.609Z,5.21
2022-11-16T04:10:59.622Z,5.50
2022-11-16T04:11:59.637Z,5.70
2022-11-16T04:12:59.616Z,5.53
2022-11-16T04:13:59.620Z,5.37
2022-11-16T04:15:59.622Z,4.94
2022-11-16T04:17:59.690Z,5.03
2022-11-16T04:18:59.649Z,5.56
2022-11-16T04:19:59.628Z,5.54
2022-11-16T04:20:59.665Z,5.80
2022-11-16T04:21:59.669Z,6.05
2022-11-16T04:23:59.709Z,4.49
2022-11-16T04:24:59.636Z,5.69
2022-11-16T04:25:59.648Z,5.63
2022-11-16T04:27:59.633Z,5.51
2022-11-16T04:30:59.692Z,5.62
2022-11-16T04:31:59.705Z,5.50
2022-11-16T04:32:59.659Z,5.74
2022-11-16T04:33:59.659Z,5.40
2022-11-16T04:34:59.710Z,5.44
2022-11-16T04:35:59.675Z,5.70
2022-11-16T04:36:59.665Z,5.73
2022-11-16T04:37:59.672Z,5.55
2022-11-16T04:38:59.674Z,5.35
2022-11-16T04:39:59.685Z,5.73
2022-11-16T04:40:59.709Z,5.81
2022-11-16T04:41:59.712Z,5.33
2022-11-16T04:42:59.690Z,4.92
2022-11-16T04:43:59.693Z,5.28
2022-11-16T04:44:59.735Z,5.86
2022-11-16T04:45:59.705Z,5.65
2022-11-16T04:46:59.935Z,5.41
2022-11-16T04:47:59.707Z,5.44
2022-11-16T04:48:59.705Z,5.23
2022-11-16T04:49:59.751Z,5.30
2022-11-16T04:50:59.706Z,5.34
2022-11-16T04:51:59.730Z,4.77
2022-11-16T04:52:59.747Z,4.99
2022-11-16T04:53:59.695Z,4.86
2022-11-16T04:54:59.744Z,5.36
2022-11-16T04:56:01.011Z,4.86
2022-11-16T04:56:59.721Z,4.12
2022-11-16T04:57:59.707Z,4.49
2022-11-16T04:58:59.751Z,4.01
2022-11-16T04:59:59.755Z,4.38
2022-11-16T05:00:59.797Z,4.51
2022-11-16T05:01:59.741Z,4.39
2022-11-16T05:03:01.569Z,4.48
2022-11-16T05:03:59.755Z,4.41
2022-11-16T05:04:59.816Z,5.12
2022-11-16T05:05:59.761Z,4.82
2022-11-16T05:06:59.796Z,4.74
2022-11-16T05:07:59.775Z,4.76
2022-11-16T05:08:59.741Z,5.66
2022-11-16T05:09:59.785Z,5.17
2022-11-16T05:10:59.784Z,4.98
2022-11-16T05:11:59.758Z,5.05
2022-11-16T05:12:59.811Z,5.73
2022-11-16T05:13:59.766Z,5.57
2022-11-16T05:14:59.802Z,5.65
2022-11-16T05:15:59.757Z,5.56
2022-11-16T05:16:59.780Z,6.11
2022-11-16T05:17:59.824Z,5.95
2022-11-16T05:19:59.779Z,5.91
2022-11-16T05:20:59.796Z,5.85
2022-11-16T05:21:59.825Z,5.65
2022-11-16T05:24:59.810Z,5.66
2022-11-16T05:25:59.795Z,5.96
2022-11-16T05:27:59.824Z,6.00
2022-11-16T05:30:59.807Z,6.54
2022-11-16T05:31:59.819Z,6.33
2022-11-16T05:35:59.857Z,7.44
2022-11-16T05:36:59.823Z,7.37
2022-11-16T05:37:59.879Z,7.20
2022-11-16T05:38:59.833Z,7.54
2022-11-16T05:39:59.823Z,7.55
2022-11-16T05:40:59.882Z,7.50
2022-11-16T05:42:59.815Z,7.70
2022-11-16T05:43:59.860Z,7.71
2022-11-16T05:45:59.855Z,8.36
2022-11-16T05:46:59.840Z,7.82
2022-11-16T05:47:59.883Z,7.50
2022-11-16T05:48:59.878Z,7.39
2022-11-16T05:49:59.869Z,7.14
2022-11-16T05:50:59.861Z,7.76
2022-11-16T05:51:59.887Z,8.76
2022-11-16T05:52:59.852Z,7.98
2022-11-16T05:53:59.937Z,7.54
2022-11-16T05:54:59.859Z,8.12
2022-11-16T05:55:59.920Z,8.28
2022-11-16T05:58:59.958Z,7.83
2022-11-16T05:59:59.876Z,7.94
2022-11-16T06:00:59.914Z,8.40
2022-11-16T06:01:59.899Z,8.21
2022-11-16T06:02:59.967Z,7.42
2022-11-16T06:04:00.009Z,7.79
2022-11-16T06:04:59.890Z,7.86
2022-11-16T06:05:59.908Z,8.56
2022-11-16T06:06:59.953Z,6.66
2022-11-16T06:07:59.876Z,7.55
2022-11-16T06:09:00.102Z,6.97
2022-11-16T06:09:59.909Z,7.85
2022-11-16T06:11:59.972Z,6.13
2022-11-16T06:12:59.939Z,6.62
2022-11-16T06:15:59.953Z,7.28
2022-11-16T06:16:59.959Z,7.16
2022-11-16T06:17:59.924Z,7.35
2022-11-16T06:19:59.931Z,8.54
2022-11-16T06:20:59.925Z,8.22
2022-11-16T06:22:00.024Z,9.57
2022-11-16T06:22:59.948Z,7.31
2022-11-16T06:23:59.988Z,8.67
2022-11-16T06:24:59.959Z,8.06
2022-11-16T06:25:59.978Z,6.97
2022-11-16T06:28:59.972Z,7.07
2022-11-16T06:29:59.988Z,6.43
2022-11-16T06:30:59.955Z,7.64
2022-11-16T06:31:59.983Z,6.51
2022-11-16T06:32:59.961Z,6.03
2022-11-16T06:33:59.977Z,6.24
2022-11-16T06:34:59.998Z,5.88
2022-11-16T06:37:00.039Z,5.84
2022-11-16T06:37:59.975Z,5.22
2022-11-16T06:39:00.001Z,5.64
2022-11-16T06:40:00.054Z,6.26
2022-11-16T06:40:59.986Z,6.19
2022-11-16T06:42:00.020Z,5.94
2022-11-16T06:43:00.001Z,5.40
2022-11-16T06:44:00.027Z,5.53
2022-11-16T06:45:00.024Z,5.70
2022-11-16T06:46:00.042Z,5.26
2022-11-16T06:47:00.002Z,5.16
2022-11-16T06:48:00.024Z,4.84
2022-11-16T06:49:00.007Z,5.46
2022-11-16T06:50:00.045Z,5.11
2022-11-16T06:51:00.014Z,5.34
2022-11-16T06:52:00.025Z,5.04
2022-11-16T06:53:00.003Z,5.93
2022-11-16T06:54:00.001Z,5.89
2022-11-16T06:55:00.086Z,5.82
2022-11-16T06:56:00.021Z,5.25
2022-11-16T06:57:00.100Z,5.64
2022-11-16T06:58:00.033Z,6.53
2022-11-16T06:59:00.032Z,6.41
2022-11-16T07:00:00.038Z,6.14
2022-11-16T07:01:00.017Z,5.50
2022-11-16T07:02:00.207Z,5.59
2022-11-16T07:03:00.095Z,5.05
2022-11-16T07:04:00.094Z,6.14
2022-11-16T07:05:03.545Z,6.17
2022-11-16T07:06:00.056Z,5.43
2022-11-16T07:07:00.153Z,4.86
2022-11-16T07:08:00.078Z,5.02
2022-11-16T07:09:00.101Z,4.84
2022-11-16T07:10:00.096Z,4.55
2022-11-16T07:11:03.999Z,5.80
2022-11-16T07:12:00.125Z,5.06
2022-11-16T07:13:00.101Z,5.85
2022-11-16T07:14:00.087Z,5.22
2022-11-16T07:15:00.104Z,6.21
2022-11-16T07:16:00.093Z,5.72
2022-11-16T07:17:03.944Z,5.32
2022-11-16T07:18:00.126Z,4.78
2022-11-16T07:19:00.100Z,4.72
2022-11-16T07:20:00.183Z,4.59
2022-11-16T07:21:00.091Z,4.73
2022-11-16T07:22:00.104Z,4.91
2022-11-16T07:23:00.155Z,4.67
2022-11-16T07:24:00.105Z,5.12
2022-11-16T07:25:00.147Z,5.30
2022-11-16T07:26:00.126Z,5.22
2022-11-16T07:27:00.098Z,4.92
2022-11-16T07:28:00.154Z,4.79
2022-11-16T07:29:00.120Z,5.41
2022-11-16T07:30:00.149Z,4.95
2022-11-16T07:31:00.143Z,4.20
2022-11-16T07:32:00.147Z,4.64
2022-11-16T07:33:00.167Z,4.68
2022-11-16T07:34:00.131Z,4.39
2022-11-16T07:35:00.119Z,4.76
2022-11-16T07:36:00.131Z,4.40
2022-11-16T07:37:00.116Z,4.73
2022-11-16T07:38:00.244Z,4.74
2022-11-16T07:39:00.149Z,5.05
2022-11-16T07:40:00.188Z,4.61
2022-11-16T07:41:00.124Z,4.56
2022-11-16T07:42:00.145Z,4.21
2022-11-16T07:43:00.185Z,5.15
2022-11-16T07:44:00.173Z,4.71
2022-11-16T07:46:21.391Z,4.23
2022-11-16T07:48:00.156Z,4.89
2022-11-16T07:51:00.214Z,5.00
2022-11-16T07:52:00.160Z,5.46
2022-11-16T07:53:00.160Z,5.04
2022-11-16T07:54:00.183Z,5.27
2022-11-16T07:55:00.178Z,5.01
2022-11-16T07:56:00.275Z,5.23
2022-11-16T07:57:00.193Z,4.84
2022-11-16T07:58:00.231Z,5.10
2022-11-16T07:59:00.157Z,5.45
2022-11-16T08:00:00.175Z,4.85
2022-11-16T08:01:00.225Z,5.75
2022-11-16T08:02:00.360Z,4.76
2022-11-16T08:03:00.233Z,5.56
2022-11-16T08:04:00.210Z,5.35
2022-11-16T08:05:00.200Z,4.99
2022-11-16T08:06:00.197Z,4.62
2022-11-16T08:07:00.293Z,5.27
2022-11-16T08:08:00.275Z,4.89
2022-11-16T08:09:00.214Z,3.95
2022-11-16T08:10:00.246Z,4.53
2022-11-16T08:11:00.217Z,4.38
2022-11-16T08:12:00.193Z,4.26
2022-11-16T08:13:00.204Z,4.50
2022-11-16T08:14:00.373Z,4.63
2022-11-16T08:15:00.209Z,4.94
2022-11-16T08:16:00.219Z,4.65
2022-11-16T08:17:00.229Z,4.74
2022-11-16T08:18:00.258Z,4.18
2022-11-16T08:19:00.260Z,5.02
2022-11-16T08:20:00.307Z,6.08
2022-11-16T08:21:00.275Z,5.04
2022-11-16T08:22:00.259Z,6.89
2022-11-16T08:23:00.243Z,7.04
2022-11-16T08:24:00.280Z,5.29
2022-11-16T08:25:00.237Z,5.17
2022-11-16T08:26:00.298Z,5.41
2022-11-16T08:27:00.239Z,4.80
2022-11-16T08:28:00.257Z,4.67
2022-11-16T08:29:00.243Z,4.80
2022-11-16T08:30:00.269Z,4.81
2022-11-16T08:31:00.252Z,5.03
2022-11-16T08:32:00.296Z,4.85
2022-11-16T08:33:00.264Z,5.05
2022-11-16T08:34:00.339Z,5.55
2022-11-16T08:35:00.290Z,4.69
2022-11-16T08:36:00.259Z,5.01
2022-11-16T08:37:00.487Z,4.96
2022-11-16T08:38:00.286Z,4.86
2022-11-16T08:39:00.325Z,4.56
2022-11-16T08:40:00.307Z,5.02
2022-11-16T08:41:00.298Z,4.09
2022-11-16T08:42:00.325Z,5.10
2022-11-16T08:43:00.324Z,4.61
2022-11-16T08:44:00.288Z,4.24
2022-11-16T08:45:00.309Z,4.72
2022-11-16T08:46:00.318Z,5.09
2022-11-16T08:47:00.346Z,4.66
2022-11-16T08:48:04.045Z,3.86
2022-11-16T08:49:00.382Z,4.68
2022-11-16T08:50:00.312Z,4.46
2022-11-16T08:51:16.859Z,4.18
2022-11-16T08:52:00.360Z,4.58
2022-11-16T08:53:00.306Z,3.83
2022-11-16T08:54:00.332Z,3.75
2022-11-16T08:55:00.433Z,4.09
2022-11-16T08:56:00.340Z,4.35
2022-11-16T08:57:00.346Z,3.83
2022-11-16T08:58:00.351Z,3.41
2022-11-16T08:59:00.336Z,3.29
2022-11-16T09:00:00.336Z,4.19
2022-11-16T09:01:00.381Z,3.49
2022-11-16T09:02:00.431Z,3.80
2022-11-16T09:03:00.354Z,3.30
2022-11-16T09:04:00.363Z,3.79
2022-11-16T09:05:00.414Z,3.49
2022-11-16T09:06:00.355Z,3.53
2022-11-16T09:07:00.494Z,3.42
2022-11-16T09:08:00.364Z,3.60
2022-11-16T09:09:00.374Z,3.99
2022-11-16T09:10:00.419Z,3.93
2022-11-16T09:11:00.349Z,4.08
2022-11-16T09:12:00.437Z,3.72
2022-11-16T09:13:00.371Z,3.71
2022-11-16T09:14:00.382Z,4.08
2022-11-16T09:15:00.419Z,3.73
2022-11-16T09:16:00.392Z,3.76
2022-11-16T09:17:00.376Z,3.94
2022-11-16T09:18:00.441Z,3.59
2022-11-16T09:19:00.379Z,4.19
2022-11-16T09:20:00.428Z,3.91
2022-11-16T09:21:00.419Z,3.78
2022-11-16T09:22:00.437Z,3.65
2022-11-16T09:23:00.450Z,3.53
2022-11-16T09:24:00.451Z,3.67
2022-11-16T09:25:00.431Z,4.20
2022-11-16T09:26:00.440Z,3.93
2022-11-16T09:27:00.422Z,3.60
2022-11-16T09:28:00.429Z,3.88
2022-11-16T09:29:00.423Z,3.26
2022-11-16T09:30:00.488Z,3.85
2022-11-16T09:31:00.418Z,3.49
2022-11-16T09:32:00.434Z,3.70
2022-11-16T09:33:00.454Z,4.16
2022-11-16T09:34:00.425Z,3.46
2022-11-16T09:35:00.431Z,3.17
2022-11-16T09:36:00.666Z,3.54
2022-11-16T09:37:00.465Z,3.58
2022-11-16T09:38:00.479Z,3.72
2022-11-16T09:39:30.713Z,3.16
2022-11-16T09:40:00.446Z,3.22
2022-11-16T09:41:00.474Z,3.38
2022-11-16T09:42:00.567Z,3.47
2022-11-16T09:43:00.466Z,3.00
2022-11-16T09:44:00.467Z,2.72
2022-11-16T09:45:00.467Z,2.92
2022-11-16T09:46:00.498Z,3.27
2022-11-16T09:47:00.452Z,2.69
2022-11-16T09:48:00.482Z,3.30
2022-11-16T09:49:00.462Z,2.73
2022-11-16T09:51:00.506Z,3.31
2022-11-16T09:52:00.500Z,3.24
2022-11-16T09:53:00.493Z,4.31
2022-11-16T09:54:00.503Z,3.90
2022-11-16T09:55:00.484Z,3.63
2022-11-16T09:56:00.517Z,3.37
2022-11-16T09:57:00.475Z,3.49
2022-11-16T09:58:00.502Z,3.19
2022-11-16T09:59:00.579Z,3.07
2022-11-16T10:00:00.508Z,3.41
2022-11-16T10:01:00.596Z,3.36
2022-11-16T10:02:00.524Z,3.03
2022-11-16T10:03:00.480Z,2.82
2022-11-16T10:04:00.524Z,3.45
2022-11-16T10:05:00.528Z,2.79
2022-11-16T10:06:00.525Z,3.09
2022-11-16T10:07:00.591Z,2.98
2022-11-16T10:08:00.529Z,3.66
2022-11-16T10:09:00.537Z,3.55
2022-11-16T10:10:00.514Z,3.57
2022-11-16T10:11:00.561Z,3.25
2022-11-16T10:12:00.529Z,3.46
2022-11-16T10:13:00.529Z,3.00
2022-11-16T10:14:04.229Z,3.10
2022-11-16T10:15:00.514Z,3.32
2022-11-16T10:16:00.540Z,3.58
2022-11-16T10:17:00.570Z,3.34
2022-11-16T10:18:00.543Z,3.35
2022-11-16T10:19:00.626Z,3.65
2022-11-16T10:20:00.543Z,3.40
2022-11-16T10:21:00.543Z,3.14
2022-11-16T10:22:00.610Z,2.95
2022-11-16T10:23:00.576Z,3.58
2022-11-16T10:25:00.570Z,3.41
2022-11-16T10:26:00.583Z,3.32
2022-11-16T10:27:00.657Z,3.09
2022-11-16T10:28:00.582Z,2.81
2022-11-16T10:29:00.580Z,3.97
2022-11-16T10:30:00.564Z,3.11
2022-11-16T10:31:00.572Z,3.36
2022-11-16T10:32:00.587Z,3.23
2022-11-16T10:33:00.630Z,2.88
2022-11-16T10:34:00.575Z,2.48
2022-11-16T10:35:00.621Z,3.61
2022-11-16T10:36:00.581Z,3.28
2022-11-16T10:37:00.597Z,3.17
2022-11-16T10:38:00.612Z,2.58
2022-11-16T10:39:00.639Z,2.56
2022-11-16T10:40:00.632Z,2.42
2022-11-16T10:41:00.604Z,2.30
2022-11-16T10:42:06.075Z,1.96
2022-11-16T10:43:00.627Z,2.13
2022-11-16T10:44:00.591Z,2.06
2022-11-16T10:45:00.666Z,1.76
2022-11-16T10:46:00.603Z,1.61
2022-11-16T10:47:00.604Z,1.91
2022-11-16T10:49:00.618Z,1.89
2022-11-16T10:50:00.626Z,2.11
2022-11-16T10:52:00.654Z,2.19
2022-11-16T10:53:00.648Z,1.68
2022-11-16T10:55:00.653Z,1.68
2022-11-16T10:56:00.641Z,2.01
2022-11-16T10:57:00.642Z,2.13
2022-11-16T10:58:00.697Z,2.56
2022-11-16T10:59:00.649Z,2.17
2022-11-16T11:00:00.643Z,1.78
2022-11-16T11:01:00.763Z,1.91
2022-11-16T11:02:00.669Z,1.93
2022-11-16T11:03:00.738Z,2.31
2022-11-16T11:04:00.663Z,1.66
2022-11-16T11:05:00.646Z,1.71
2022-11-16T11:08:00.710Z,2.04
2022-11-16T11:09:00.721Z,1.69
2022-11-16T11:10:00.678Z,2.38
2022-11-16T11:11:00.721Z,1.89
2022-11-16T11:12:00.679Z,2.08
2022-11-16T11:13:00.672Z,1.93
2022-11-16T11:14:00.679Z,2.74
2022-11-16T11:15:00.739Z,10.15
2022-11-16T11:16:00.685Z,5.62
2022-11-16T11:17:00.668Z,3.09
2022-11-16T11:18:00.696Z,2.24
2022-11-16T11:19:00.695Z,1.87
2022-11-16T11:20:00.704Z,2.17
2022-11-16T11:21:00.780Z,2.04
2022-11-16T11:22:00.713Z,2.17
2022-11-16T11:23:00.701Z,1.89
2022-11-16T11:24:16.397Z,1.84
2022-11-16T11:25:00.700Z,2.18
2022-11-16T11:26:00.746Z,1.91
2022-11-16T11:27:00.739Z,1.75
2022-11-16T11:29:00.741Z,1.97
2022-11-16T11:30:00.722Z,1.77
2022-11-16T11:31:00.755Z,1.81
2022-11-16T11:33:00.819Z,1.58
2022-11-16T11:34:00.773Z,1.93
2022-11-16T11:35:00.730Z,2.07
2022-11-16T11:36:00.750Z,2.05
2022-11-16T11:37:00.788Z,1.72
2022-11-16T11:38:07.271Z,2.11
2022-11-16T11:39:00.964Z,1.68
2022-11-16T11:42:00.759Z,1.35
2022-11-16T11:43:00.768Z,1.04
2022-11-16T11:44:00.779Z,1.38
2022-11-16T11:45:00.820Z,1.47
2022-11-16T11:46:00.780Z,1.39
2022-11-16T11:47:55.504Z,1.91
2022-11-16T11:49:00.767Z,3.73
2022-11-16T11:50:00.796Z,3.27
2022-11-16T11:51:00.810Z,2.45
2022-11-16T11:52:00.817Z,2.49
2022-11-16T11:53:00.800Z,3.65
2022-11-16T11:54:00.814Z,3.70
2022-11-16T11:55:00.788Z,4.43
2022-11-16T11:56:00.783Z,4.10
2022-11-16T11:57:00.820Z,4.00
2022-11-16T11:59:00.816Z,2.95
2022-11-16T12:00:00.795Z,3.09
2022-11-16T12:01:00.816Z,1.95
2022-11-16T12:02:00.855Z,3.72
2022-11-16T12:03:00.869Z,2.98
2022-11-16T12:04:00.861Z,1.99
2022-11-16T12:06:00.834Z,1.87
2022-11-16T12:08:00.828Z,2.30
2022-11-16T12:09:00.866Z,1.45
2022-11-16T12:10:00.835Z,1.91
2022-11-16T12:11:00.853Z,1.87
2022-11-16T12:12:00.874Z,1.96
2022-11-16T12:13:00.894Z,1.81
2022-11-16T12:14:00.875Z,1.39
2022-11-16T12:15:00.876Z,1.50
2022-11-16T12:16:00.847Z,2.29
2022-11-16T12:17:00.890Z,2.28
2022-11-16T12:18:00.830Z,2.62
2022-11-16T12:20:00.949Z,2.06
2022-11-16T12:21:00.867Z,2.04
2022-11-16T12:22:00.883Z,2.30
2022-11-16T12:23:03.957Z,2.46
2022-11-16T12:24:00.872Z,2.79
2022-11-16T12:25:00.899Z,2.61
2022-11-16T12:27:00.922Z,5.37
2022-11-16T12:29:00.884Z,3.93
2022-11-16T12:31:00.888Z,2.30
2022-11-16T12:32:00.965Z,2.05
2022-11-16T12:33:00.891Z,2.11
2022-11-16T12:34:00.889Z,1.84
2022-11-16T12:35:00.913Z,2.20
2022-11-16T12:36:00.909Z,1.78
2022-11-16T12:37:00.942Z,2.43
2022-11-16T12:38:00.969Z,2.13
2022-11-16T12:39:00.922Z,1.42
2022-11-16T12:40:00.929Z,1.99
2022-11-16T12:41:00.889Z,1.58
2022-11-16T12:42:00.951Z,2.06
2022-11-16T12:43:00.934Z,1.62
2022-11-16T12:45:00.979Z,2.48
2022-11-16T12:46:00.922Z,1.83
2022-11-16T12:49:00.909Z,1.76
2022-11-16T12:50:00.917Z,2.01
2022-11-16T12:51:00.984Z,1.54
2022-11-16T12:52:00.967Z,1.59
2022-11-16T12:53:00.922Z,2.09
2022-11-16T12:55:25.438Z,1.98
2022-11-16T12:56:00.948Z,2.05
2022-11-16T12:57:00.983Z,1.54
2022-11-16T12:58:00.966Z,1.55
2022-11-16T12:59:00.957Z,1.60
2022-11-16T13:00:01.000Z,1.50
2022-11-16T13:01:00.992Z,1.43
2022-11-16T13:02:01.016Z,1.31
2022-11-16T13:03:00.955Z,1.79
2022-11-16T13:05:01.014Z,2.00
2022-11-16T13:06:00.947Z,1.52
2022-11-16T13:07:01.538Z,1.55
2022-11-16T13:09:01.081Z,2.16
2022-11-16T13:10:01.010Z,3.27
2022-11-16T13:11:00.994Z,2.57
2022-11-16T13:12:01.023Z,1.83
2022-11-16T13:14:01.328Z,1.72
2022-11-16T13:15:01.029Z,1.63
2022-11-16T13:16:00.994Z,1.68
2022-11-16T13:19:01.006Z,1.84
2022-11-16T13:20:00.978Z,1.29
2022-11-16T13:21:01.057Z,1.62
2022-11-16T13:24:01.015Z,2.75
2022-11-16T13:25:01.076Z,2.20
2022-11-16T13:27:01.018Z,2.65
2022-11-16T13:28:01.023Z,2.55
2022-11-16T13:29:01.038Z,2.10
2022-11-16T13:30:01.057Z,1.74
2022-11-16T13:31:01.053Z,1.51
2022-11-16T13:32:01.046Z,1.61
2022-11-16T13:34:01.030Z,1.46
2022-11-16T13:35:01.077Z,1.59
2022-11-16T13:36:01.038Z,1.66
2022-11-16T13:37:01.041Z,1.43
2022-11-16T13:39:01.069Z,1.68
2022-11-16T13:40:01.079Z,1.64
2022-11-16T13:41:01.047Z,1.52
2022-11-16T13:42:01.067Z,1.50
2022-11-16T13:43:01.120Z,1.40
2022-11-16T13:44:01.076Z,1.57
2022-11-16T13:45:01.123Z,1.38
2022-11-16T13:46:01.077Z,1.24
2022-11-16T13:47:01.079Z,14.66
2022-11-16T13:50:01.111Z,4.30
2022-11-16T13:51:01.135Z,2.90
2022-11-16T13:52:17.328Z,2.13
2022-11-16T13:54:43.990Z,1.51
2022-11-16T13:57:01.103Z,1.60
2022-11-16T13:58:01.146Z,2.26
2022-11-16T13:59:01.115Z,1.89
2022-11-16T14:00:01.122Z,1.87
2022-11-16T14:01:01.156Z,1.86
2022-11-16T14:02:01.124Z,1.18
2022-11-16T14:03:01.434Z,1.31
2022-11-16T14:04:01.112Z,1.00
2022-11-16T14:06:01.177Z,1.34
2022-11-16T14:07:01.280Z,1.24
2022-11-16T14:09:01.129Z,1.72
2022-11-16T14:12:01.140Z,1.22
2022-11-16T14:13:01.179Z,1.09
2022-11-16T14:14:01.165Z,1.04
2022-11-16T14:16:01.184Z,7.14
2022-11-16T14:17:01.142Z,5.35
2022-11-16T14:19:01.167Z,1.88
2022-11-16T14:20:01.180Z,1.53
2022-11-16T14:21:01.194Z,1.25
2022-11-16T14:22:01.179Z,1.36
2022-11-16T14:23:01.198Z,1.02
2022-11-16T14:24:01.169Z,0.89
2022-11-16T14:25:01.170Z,0.98
2022-11-16T14:26:01.214Z,1.01
2022-11-16T14:27:01.167Z,1.24
2022-11-16T14:29:01.204Z,0.94
2022-11-16T14:30:01.193Z,2.55
2022-11-16T14:31:01.220Z,2.32
2022-11-16T14:32:01.168Z,2.21
2022-11-16T14:33:01.191Z,1.72
2022-11-16T14:34:01.209Z,2.65
2022-11-16T14:35:01.202Z,1.48
2022-11-16T14:37:01.222Z,1.41
2022-11-16T14:39:01.221Z,1.02
2022-11-16T14:40:01.193Z,1.12
2022-11-16T14:41:01.257Z,0.95
2022-11-16T14:42:01.219Z,0.78
2022-11-16T14:43:15.820Z,0.92
2022-11-16T14:45:01.214Z,0.83
2022-11-16T14:47:01.268Z,1.09
2022-11-16T14:49:01.259Z,1.02
2022-11-16T14:51:01.271Z,1.16
2022-11-16T14:52:01.234Z,1.37
2022-11-16T14:53:01.245Z,1.02
2022-11-16T14:54:01.264Z,1.28
2022-11-16T14:55:01.239Z,1.54
2022-11-16T14:56:01.294Z,1.76
2022-11-16T14:59:01.274Z,1.90
2022-11-16T15:00:01.266Z,1.98
2022-11-16T15:01:01.276Z,1.84
2022-11-16T15:02:01.286Z,1.20
2022-11-16T15:03:02.953Z,1.98
2022-11-16T15:04:01.322Z,2.00
2022-11-16T15:05:01.276Z,1.97
2022-11-16T15:06:01.297Z,1.41
2022-11-16T15:08:01.282Z,4.63
2022-11-16T15:09:01.298Z,3.03
2022-11-16T15:10:01.312Z,2.83
2022-11-16T15:11:01.288Z,2.47
2022-11-16T15:12:01.317Z,2.09
2022-11-16T15:13:01.306Z,1.52
2022-11-16T15:14:01.299Z,1.98